createdAt,value
2023-03-27T00:01:38.233Z,26.60
2023-03-27T00:04:09.259Z,23.95
2023-03-27T00:06:37.737Z,24.50
2023-03-27T00:09:08.457Z,19.67
2023-03-27T00:11:37.101Z,24.50
2023-03-27T00:14:05.788Z,26.48
2023-03-27T00:16:35.718Z,27.27
2023-03-27T00:19:05.610Z,26.40
2023-03-27T00:21:34.393Z,27.33
2023-03-27T00:24:02.839Z,29.40
2023-03-27T00:26:31.636Z,29.42
2023-03-27T00:29:00.224Z,26.17
2023-03-27T00:31:28.498Z,24.00
2023-03-27T00:33:58.688Z,22.08
2023-03-27T00:36:27.349Z,22.20
2023-03-27T00:38:55.857Z,22.90
2023-03-27T00:41:24.681Z,23.35
2023-03-27T00:43:56.430Z,19.23
2023-03-27T00:49:04.457Z,19.83
2023-03-27T00:51:32.886Z,20.90
2023-03-27T00:54:02.027Z,18.10
2023-03-27T00:56:30.760Z,26.25
2023-03-27T00:59:02.678Z,19.40
2023-03-27T01:01:32.119Z,20.25
2023-03-27T01:04:05.839Z,18.70
2023-03-27T01:06:34.509Z,21.20
2023-03-27T01:09:05.054Z,18.30
2023-03-27T01:11:40.362Z,20.65
2023-03-27T01:14:14.763Z,20.60
2023-03-27T01:16:50.390Z,16.92
2023-03-27T01:19:43.080Z,18.83
2023-03-27T01:22:26.255Z,17.25
2023-03-27T01:25:21.690Z,20.63
2023-03-27T01:28:12.678Z,14.82
2023-03-27T01:30:43.208Z,23.58
2023-03-27T01:33:27.021Z,26.90
2023-03-27T01:36:34.897Z,30.77
2023-03-27T01:39:30.781Z,26.05
2023-03-27T01:42:06.429Z,31.42
2023-03-27T01:44:45.306Z,33.25
2023-03-27T01:47:23.380Z,30.08
2023-03-27T01:49:54.816Z,27.65
2023-03-27T01:52:27.130Z,24.58
2023-03-27T01:55:03.428Z,23.63
2023-03-27T01:57:36.852Z,18.98
2023-03-27T02:00:22.653Z,22.80
2023-03-27T02:02:54.475Z,20.17
2023-03-27T02:05:26.478Z,18.13
2023-03-27T02:07:58.964Z,19.48
2023-03-27T02:10:33.380Z,20.45
2023-03-27T02:13:06.561Z,17.17
2023-03-27T02:15:36.346Z,20.98
2023-03-27T02:18:06.264Z,17.38
2023-03-27T02:20:35.103Z,16.70
2023-03-27T02:23:03.674Z,18.10
2023-03-27T02:25:35.183Z,13.95
2023-03-27T02:28:14.230Z,17.10
2023-03-27T02:30:46.362Z,15.63
2023-03-27T02:33:41.704Z,16.52
2023-03-27T02:36:21.341Z,16.08
2023-03-27T02:38:53.968Z,17.45
2023-03-27T02:41:27.934Z,16.25
2023-03-27T02:44:02.200Z,18.17
2023-03-27T02:46:33.171Z,19.27
2023-03-27T02:49:04.618Z,18.42
2023-03-27T02:51:37.123Z,19.50
2023-03-27T02:54:07.897Z,17.73
2023-03-27T02:56:40.392Z,16.87
2023-03-27T02:59:11.033Z,15.50
2023-03-27T03:01:40.652Z,17.55
2023-03-27T03:04:12.502Z,16.70
2023-03-27T03:09:11.207Z,11.60
2023-03-27T03:11:47.088Z,15.13
2023-03-27T03:14:15.870Z,13.50
2023-03-27T03:16:44.159Z,14.02
2023-03-27T03:19:12.860Z,13.63
2023-03-27T03:21:41.150Z,14.60
2023-03-27T03:24:10.522Z,14.70
2023-03-27T03:26:40.140Z,14.55
2023-03-27T03:29:10.836Z,17.63
2023-03-27T03:31:46.779Z,16.17
2023-03-27T03:34:18.510Z,20.23
2023-03-27T03:36:49.767Z,17.17
2023-03-27T03:39:18.913Z,15.00
2023-03-27T03:41:49.085Z,17.33
2023-03-27T03:44:17.570Z,16.37
2023-03-27T03:46:45.903Z,15.80
2023-03-27T03:49:14.375Z,14.93
2023-03-27T03:51:42.578Z,16.00
2023-03-27T03:54:11.570Z,13.95
2023-03-27T03:56:41.852Z,14.13
2023-03-27T03:59:12.914Z,13.18
2023-03-27T04:01:43.619Z,13.97
2023-03-27T04:04:15.001Z,11.18
2023-03-27T04:06:43.325Z,13.15
2023-03-27T04:09:12.513Z,15.38
2023-03-27T04:11:40.740Z,13.68
2023-03-27T04:14:09.146Z,11.02
2023-03-27T04:16:38.849Z,11.10
2023-03-27T04:19:07.393Z,10.57
2023-03-27T04:21:36.559Z,13.80
2023-03-27T04:24:06.216Z,13.23
2023-03-27T04:26:35.511Z,13.27
2023-03-27T04:29:04.155Z,11.00
2023-03-27T04:31:34.754Z,11.60
2023-03-27T04:34:04.834Z,13.45
2023-03-27T04:36:33.171Z,13.50
2023-03-27T04:39:02.449Z,13.80
2023-03-27T04:41:30.873Z,9.48
2023-03-27T04:43:59.784Z,11.65
2023-03-27T04:46:28.005Z,11.18
2023-03-27T04:48:56.684Z,12.35
2023-03-27T04:51:26.719Z,15.32
2023-03-27T04:53:56.607Z,16.27
2023-03-27T04:56:25.107Z,15.23
2023-03-27T04:58:53.666Z,14.38
2023-03-27T05:01:22.909Z,13.18
2023-03-27T05:03:51.736Z,15.55
2023-03-27T05:06:20.224Z,15.10
2023-03-27T05:08:50.285Z,18.48
2023-03-27T05:11:22.250Z,16.42
2023-03-27T05:13:51.075Z,13.57
2023-03-27T05:16:19.401Z,14.80
2023-03-27T05:18:47.937Z,18.13
2023-03-27T05:21:16.863Z,12.18
2023-03-27T05:23:45.301Z,15.10
2023-03-27T05:26:14.939Z,15.88
2023-03-27T05:28:43.438Z,18.75
2023-03-27T05:31:12.784Z,19.67
2023-03-27T05:33:41.339Z,15.35
2023-03-27T05:36:10.443Z,16.30
2023-03-27T05:38:39.773Z,18.50
2023-03-27T05:41:08.562Z,15.07
2023-03-27T05:43:38.916Z,17.08
2023-03-27T05:46:07.782Z,19.48
2023-03-27T05:48:38.703Z,15.05
2023-03-27T05:51:07.363Z,15.45
2023-03-27T05:53:39.342Z,19.58
2023-03-27T05:56:08.582Z,20.48
2023-03-27T05:58:38.934Z,17.52
2023-03-27T06:01:07.974Z,15.80
2023-03-27T06:03:38.567Z,14.55
2023-03-27T06:06:11.543Z,14.07
2023-03-27T06:08:40.319Z,14.60
2023-03-27T06:11:12.526Z,13.02
2023-03-27T06:13:42.790Z,10.68
2023-03-27T06:16:11.829Z,12.38
2023-03-27T06:18:40.776Z,12.95
2023-03-27T06:21:09.044Z,12.48
2023-03-27T06:23:37.721Z,11.88
2023-03-27T06:26:06.467Z,11.40
2023-03-27T06:28:35.055Z,15.13
2023-03-27T06:31:04.739Z,11.60
2023-03-27T06:33:33.249Z,14.85
2023-03-27T06:36:01.510Z,12.00
2023-03-27T06:38:31.653Z,11.45
2023-03-27T06:41:00.731Z,12.95
2023-03-27T06:43:29.287Z,14.27
2023-03-27T06:45:58.309Z,13.77
2023-03-27T06:48:28.834Z,12.88
2023-03-27T06:50:57.183Z,15.90
2023-03-27T06:53:28.156Z,14.98
2023-03-27T06:55:58.626Z,12.27
2023-03-27T06:58:27.587Z,13.45
2023-03-27T07:00:56.159Z,14.32
2023-03-27T07:03:25.881Z,12.88
2023-03-27T07:05:56.055Z,15.55
2023-03-27T07:08:25.578Z,17.57
2023-03-27T07:13:26.233Z,16.17
2023-03-27T07:15:55.075Z,16.77
2023-03-27T07:18:23.772Z,15.18
2023-03-27T07:20:52.285Z,18.83
2023-03-27T07:23:22.475Z,18.80
2023-03-27T07:25:58.800Z,20.30
2023-03-27T07:28:27.751Z,19.25
2023-03-27T07:30:56.379Z,21.05
2023-03-27T07:33:25.487Z,22.13
2023-03-27T07:35:53.808Z,20.92
2023-03-27T07:38:24.048Z,19.83
2023-03-27T07:40:52.282Z,22.15
2023-03-27T07:43:20.787Z,21.45
2023-03-27T07:45:49.808Z,20.58
2023-03-27T07:48:19.097Z,18.23
2023-03-27T07:50:47.927Z,17.15
2023-03-27T07:53:32.300Z,22.25
2023-03-27T07:56:04.022Z,19.40
2023-03-27T07:58:32.731Z,19.77
2023-03-27T08:01:02.484Z,18.75
2023-03-27T08:03:32.259Z,22.50
2023-03-27T08:06:01.781Z,21.95
2023-03-27T08:08:31.058Z,20.15
2023-03-27T08:11:00.142Z,19.67
2023-03-27T08:13:30.474Z,20.30
2023-03-27T08:16:07.089Z,19.63
2023-03-27T08:18:36.591Z,18.48
2023-03-27T08:21:07.200Z,22.90
2023-03-27T08:23:36.300Z,25.73
2023-03-27T08:26:05.629Z,25.05
2023-03-27T08:28:36.749Z,22.77
2023-03-27T08:31:11.477Z,26.55
2023-03-27T08:33:41.989Z,28.58
2023-03-27T08:36:11.613Z,27.17
2023-03-27T08:38:41.438Z,26.08
2023-03-27T08:41:22.412Z,29.85
2023-03-27T08:43:53.395Z,21.38
2023-03-27T08:46:23.883Z,22.70
2023-03-27T08:48:55.402Z,23.05
2023-03-27T08:51:26.957Z,24.38
2023-03-27T08:53:58.405Z,21.98
2023-03-27T08:56:27.519Z,21.52
2023-03-27T08:58:57.529Z,22.95
2023-03-27T09:01:29.677Z,21.40
2023-03-27T09:04:03.005Z,20.20
2023-03-27T09:06:38.353Z,17.48
2023-03-27T09:09:12.366Z,13.40
2023-03-27T09:11:52.502Z,18.05
2023-03-27T09:14:29.313Z,13.98
2023-03-27T09:16:58.144Z,18.75
2023-03-27T09:19:33.075Z,15.15
2023-03-27T09:22:06.630Z,10.77
2023-03-27T09:24:38.020Z,21.15
2023-03-27T09:27:17.811Z,14.82
2023-03-27T09:30:05.603Z,13.45
2023-03-27T09:32:35.107Z,12.38
2023-03-27T09:35:04.774Z,16.30
2023-03-27T09:37:34.510Z,13.55
2023-03-27T09:40:07.542Z,13.80
2023-03-27T09:42:38.876Z,15.00
2023-03-27T09:45:11.609Z,14.57
2023-03-27T09:47:44.356Z,15.00
2023-03-27T09:50:27.879Z,23.48
2023-03-27T09:53:09.396Z,18.00
2023-03-27T09:55:49.762Z,15.95
2023-03-27T09:58:25.327Z,20.02
2023-03-27T10:01:09.818Z,25.80
2023-03-27T10:03:39.321Z,25.45
2023-03-27T10:06:10.391Z,22.27
2023-03-27T10:08:42.117Z,17.17
2023-03-27T10:11:16.665Z,14.07
2023-03-27T10:13:47.602Z,13.60
2023-03-27T10:16:18.814Z,17.17
2023-03-27T10:18:49.198Z,17.52
2023-03-27T10:21:36.130Z,15.50
2023-03-27T10:24:06.784Z,18.45
2023-03-27T10:26:38.225Z,16.58
2023-03-27T10:29:20.407Z,17.38
2023-03-27T10:31:53.704Z,12.77
2023-03-27T10:34:31.020Z,12.40
2023-03-27T10:37:01.583Z,12.75
2023-03-27T10:39:32.128Z,10.52
2023-03-27T10:42:04.553Z,15.02
2023-03-27T10:44:32.806Z,13.68
2023-03-27T10:47:03.452Z,10.60
2023-03-27T10:49:37.644Z,11.43
2023-03-27T10:52:16.569Z,12.73
2023-03-27T10:54:47.593Z,8.30
2023-03-27T10:59:48.865Z,12.73
2023-03-27T11:02:22.136Z,8.80
2023-03-27T11:04:53.906Z,9.68
2023-03-27T11:07:28.204Z,6.68
2023-03-27T11:10:00.293Z,7.38
2023-03-27T11:12:30.488Z,6.68
2023-03-27T11:15:02.157Z,7.50
2023-03-27T11:17:37.440Z,6.85
2023-03-27T11:20:08.637Z,5.80
2023-03-27T11:22:42.600Z,7.55
2023-03-27T11:25:20.004Z,8.32
2023-03-27T11:27:56.025Z,8.18
2023-03-27T11:30:33.724Z,7.82
2023-03-27T11:33:32.348Z,20.13
2023-03-27T11:36:08.650Z,27.50
2023-03-27T11:38:40.519Z,17.48
2023-03-27T11:41:14.662Z,8.68
2023-03-27T11:43:44.461Z,4.55
2023-03-27T11:46:26.233Z,4.60
2023-03-27T11:49:06.671Z,6.03
2023-03-27T11:51:43.332Z,6.07
2023-03-27T11:54:24.534Z,8.00
2023-03-27T11:56:54.710Z,4.93
2023-03-27T11:59:37.486Z,11.73
2023-03-27T12:02:17.849Z,8.02
2023-03-27T12:04:52.348Z,5.72
2023-03-27T12:07:35.769Z,8.43
2023-03-27T12:10:15.294Z,8.82
2023-03-27T12:12:56.571Z,5.93
2023-03-27T12:15:37.054Z,5.97
2023-03-27T12:18:14.543Z,7.53
2023-03-27T12:21:03.873Z,5.78
2023-03-27T12:23:44.534Z,6.43
2023-03-27T12:26:28.497Z,5.25
2023-03-27T12:29:23.023Z,3.88
2023-03-27T12:32:11.721Z,5.72
2023-03-27T12:34:51.288Z,2.85
2023-03-27T12:37:24.816Z,4.82
2023-03-27T12:39:55.042Z,4.72
2023-03-27T12:42:44.090Z,7.57
2023-03-27T12:45:18.294Z,5.25
2023-03-27T12:47:52.317Z,8.45
2023-03-27T12:50:22.502Z,9.52
2023-03-27T12:52:53.380Z,9.80
2023-03-27T12:55:35.318Z,7.97
2023-03-27T12:58:06.020Z,6.85
2023-03-27T13:00:34.461Z,6.22
2023-03-27T13:03:33.091Z,8.35
2023-03-27T13:06:14.463Z,4.40
2023-03-27T13:08:54.455Z,8.20
2023-03-27T13:11:37.418Z,7.20
2023-03-27T13:14:38.477Z,7.10
2023-03-27T13:17:25.847Z,5.85
2023-03-27T13:19:59.959Z,5.82
2023-03-27T13:22:45.871Z,8.07
2023-03-27T13:25:31.704Z,7.43
2023-03-27T13:28:28.503Z,7.63
2023-03-27T13:30:58.330Z,5.97
2023-03-27T13:33:28.204Z,6.38
2023-03-27T13:36:14.507Z,8.15
2023-03-27T13:39:13.850Z,12.05
2023-03-27T13:42:03.818Z,6.90
2023-03-27T13:45:00.354Z,8.15
2023-03-27T13:47:48.636Z,7.95
2023-03-27T13:50:41.899Z,6.63
2023-03-27T13:53:33.350Z,5.30
2023-03-27T13:56:11.110Z,4.75
2023-03-27T13:59:15.085Z,9.45
2023-03-27T14:01:54.095Z,8.93
2023-03-27T14:04:33.363Z,10.50
2023-03-27T14:07:54.129Z,10.93
2023-03-27T14:10:32.522Z,6.97
2023-03-27T14:13:13.436Z,9.82
2023-03-27T14:15:51.233Z,6.70
2023-03-27T14:18:44.147Z,5.55
2023-03-27T14:21:24.536Z,7.18
2023-03-27T14:24:06.371Z,6.03
2023-03-27T14:26:35.881Z,8.07
2023-03-27T14:29:04.184Z,8.98
2023-03-27T14:31:35.649Z,9.27
2023-03-27T14:36:36.019Z,7.85
2023-03-27T14:39:14.235Z,4.80
2023-03-27T14:41:47.278Z,5.40
2023-03-27T14:44:16.113Z,5.05
2023-03-27T14:46:48.179Z,5.13
2023-03-27T14:49:20.767Z,8.30
2023-03-27T14:51:55.457Z,8.98
2023-03-27T14:54:28.885Z,7.05
2023-03-27T14:57:00.144Z,6.50
2023-03-27T14:59:31.639Z,5.10
2023-03-27T15:02:02.135Z,6.03
2023-03-27T15:04:32.732Z,4.65
2023-03-27T15:07:14.442Z,8.90
2023-03-27T15:09:43.491Z,4.63
2023-03-27T15:12:12.802Z,4.35
2023-03-27T15:14:41.669Z,4.45
2023-03-27T15:17:15.015Z,5.70
2023-03-27T15:19:48.554Z,6.50
2023-03-27T15:22:21.085Z,3.22
2023-03-27T15:24:52.595Z,22.63
2023-03-27T15:27:24.549Z,28.17
2023-03-27T15:29:57.972Z,7.47
2023-03-27T15:32:30.325Z,6.25
2023-03-27T15:35:03.556Z,10.15
2023-03-27T15:37:33.018Z,7.20
2023-03-27T15:40:09.322Z,5.72
2023-03-27T15:42:48.465Z,5.53
2023-03-27T15:45:17.919Z,6.30
2023-03-27T15:48:00.183Z,5.93
2023-03-27T15:50:30.462Z,3.00
2023-03-27T15:53:01.565Z,5.65
2023-03-27T15:55:35.082Z,4.93
2023-03-27T15:58:16.326Z,6.25
2023-03-27T16:00:48.803Z,4.95
2023-03-27T16:03:21.233Z,9.77
2023-03-27T16:05:51.768Z,5.20
2023-03-27T16:08:28.566Z,10.15
2023-03-27T16:10:58.525Z,5.80
2023-03-27T16:13:30.082Z,6.90
2023-03-27T16:18:32.102Z,6.82
2023-03-27T16:21:10.150Z,6.00
2023-03-27T16:23:39.088Z,6.22
2023-03-27T16:26:08.687Z,7.22
2023-03-27T16:28:37.566Z,8.25
2023-03-27T16:31:13.211Z,6.50
2023-03-27T16:33:45.290Z,8.13
2023-03-27T16:36:17.013Z,4.95
2023-03-27T16:38:46.093Z,6.55
2023-03-27T16:41:15.249Z,8.38
2023-03-27T16:43:44.726Z,5.85
2023-03-27T16:46:24.331Z,7.43
2023-03-27T16:48:53.972Z,4.38
2023-03-27T16:51:25.763Z,4.88
2023-03-27T16:53:54.584Z,5.03
2023-03-27T16:56:23.325Z,5.43
2023-03-27T16:58:52.010Z,4.57
2023-03-27T17:01:20.517Z,3.78
2023-03-27T17:03:49.147Z,4.25
2023-03-27T17:06:19.239Z,5.47
2023-03-27T17:08:52.575Z,23.33
2023-03-27T17:11:21.097Z,12.63
2023-03-27T17:13:50.323Z,9.07
2023-03-27T17:16:18.629Z,8.23
2023-03-27T17:18:47.396Z,10.88
2023-03-27T17:21:15.800Z,14.85
2023-03-27T17:23:48.374Z,24.50
2023-03-27T17:26:24.749Z,22.42
2023-03-27T17:28:53.506Z,16.70
2023-03-27T17:31:22.116Z,18.77
2023-03-27T17:33:51.040Z,14.77
2023-03-27T17:36:33.106Z,14.32
2023-03-27T17:39:09.779Z,14.57
2023-03-27T17:41:39.841Z,11.48
2023-03-27T17:44:08.854Z,16.13
2023-03-27T17:46:37.424Z,11.32
2023-03-27T17:49:06.438Z,14.10
2023-03-27T17:51:35.598Z,8.75
2023-03-27T17:54:04.533Z,9.35
2023-03-27T17:56:32.895Z,11.38
2023-03-27T17:59:03.020Z,14.82
2023-03-27T18:01:31.653Z,22.52
2023-03-27T18:04:00.681Z,13.57
2023-03-27T18:06:29.266Z,14.18
2023-03-27T18:08:58.261Z,20.38
2023-03-27T18:11:26.715Z,16.77
2023-03-27T18:13:55.278Z,11.82
2023-03-27T18:16:25.137Z,12.25
2023-03-27T18:18:55.691Z,8.60
2023-03-27T18:21:24.218Z,16.88
2023-03-27T18:23:53.936Z,13.13
2023-03-27T18:26:22.415Z,11.40
2023-03-27T18:28:52.448Z,8.65
2023-03-27T18:31:21.023Z,11.07
2023-03-27T18:33:50.930Z,9.15
2023-03-27T18:36:19.460Z,8.98
2023-03-27T18:38:49.733Z,9.52
2023-03-27T18:41:18.388Z,10.55
2023-03-27T18:43:47.232Z,15.73
2023-03-27T18:46:17.317Z,22.38
2023-03-27T18:48:48.698Z,24.33
2023-03-27T18:51:19.403Z,25.52
2023-03-27T18:53:48.061Z,28.92
2023-03-27T18:56:16.831Z,32.05
2023-03-27T18:58:45.774Z,24.13
2023-03-27T19:01:14.113Z,23.63
2023-03-27T19:03:43.542Z,23.27
2023-03-27T19:06:12.994Z,27.65
2023-03-27T19:08:45.844Z,20.90
2023-03-27T19:11:14.382Z,23.13
2023-03-27T19:13:42.879Z,23.08
2023-03-27T19:16:14.535Z,26.95
2023-03-27T19:18:44.012Z,28.83
2023-03-27T19:21:12.371Z,28.90
2023-03-27T19:23:42.545Z,35.42
2023-03-27T19:26:12.529Z,30.52
2023-03-27T19:28:41.486Z,58.57
2023-03-27T19:31:11.198Z,28.23
2023-03-27T19:33:40.850Z,43.88
2023-03-27T19:36:10.232Z,39.88
2023-03-27T19:38:39.745Z,31.83
2023-03-27T19:41:12.926Z,35.20
2023-03-27T19:43:41.527Z,28.05
2023-03-27T19:48:42.503Z,21.70
2023-03-27T19:51:10.905Z,28.33
2023-03-27T19:53:39.443Z,25.00
2023-03-27T19:56:07.921Z,30.05
2023-03-27T19:58:37.906Z,34.22
2023-03-27T20:01:07.250Z,21.42
2023-03-27T20:03:38.824Z,27.75
2023-03-27T20:06:13.152Z,24.73
2023-03-27T20:08:43.006Z,21.50
2023-03-27T20:11:11.256Z,21.40
2023-03-27T20:13:55.645Z,27.35
2023-03-27T20:16:26.293Z,24.52
2023-03-27T20:19:04.625Z,26.70
2023-03-27T20:21:34.514Z,27.65
2023-03-27T20:24:03.474Z,26.88
2023-03-27T20:26:39.188Z,27.58
2023-03-27T20:29:10.523Z,27.13
2023-03-27T20:31:39.341Z,24.15
2023-03-27T20:34:08.776Z,26.67
2023-03-27T20:36:39.337Z,24.48
2023-03-27T20:39:09.263Z,25.95
2023-03-27T20:41:39.214Z,33.42
2023-03-27T20:44:15.484Z,31.35
2023-03-27T20:46:47.526Z,30.52
2023-03-27T20:49:37.645Z,35.35
2023-03-27T20:52:10.091Z,41.58
2023-03-27T20:54:38.701Z,52.15
2023-03-27T20:57:07.244Z,54.22
2023-03-27T20:59:37.236Z,44.47
2023-03-27T21:02:05.863Z,43.75
2023-03-27T21:04:34.825Z,23.02
2023-03-27T21:07:03.190Z,32.25
2023-03-27T21:09:32.077Z,29.83
2023-03-27T21:12:01.414Z,25.58
2023-03-27T21:14:30.144Z,33.47
2023-03-27T21:16:59.945Z,30.20
2023-03-27T21:19:28.846Z,29.60
2023-03-27T21:21:57.187Z,23.45
2023-03-27T21:24:25.748Z,27.77
2023-03-27T21:26:54.005Z,21.35
2023-03-27T21:29:22.804Z,18.55
2023-03-27T21:31:51.082Z,17.67
2023-03-27T21:34:21.094Z,17.67
2023-03-27T21:36:49.371Z,22.77
2023-03-27T21:39:18.136Z,28.80
2023-03-27T21:41:46.439Z,24.63
2023-03-27T21:44:15.270Z,29.80
2023-03-27T21:46:43.532Z,24.67
2023-03-27T21:49:12.222Z,32.28
2023-03-27T21:51:41.866Z,25.70
2023-03-27T21:54:10.404Z,27.85
2023-03-27T21:56:38.837Z,25.60
2023-03-27T21:59:07.550Z,26.73
2023-03-27T22:01:35.883Z,26.15
2023-03-27T22:04:04.502Z,26.90
2023-03-27T22:06:32.815Z,26.27
2023-03-27T22:09:02.872Z,29.50
2023-03-27T22:11:31.369Z,22.05
2023-03-27T22:14:00.963Z,24.70
2023-03-27T22:16:29.459Z,25.35
2023-03-27T22:18:58.392Z,27.30
2023-03-27T22:21:28.600Z,27.10
2023-03-27T22:23:58.283Z,26.13
2023-03-27T22:26:30.137Z,23.17
2023-03-27T22:28:59.325Z,20.95
2023-03-27T22:31:29.177Z,17.83
2023-03-27T22:33:57.892Z,17.77
2023-03-27T22:36:26.344Z,14.55
2023-03-27T22:38:55.542Z,14.68
2023-03-27T22:41:23.835Z,16.33
2023-03-27T22:43:54.244Z,20.33
2023-03-27T22:46:24.105Z,19.73
2023-03-27T22:48:56.424Z,15.85
2023-03-27T22:51:25.150Z,20.60
2023-03-27T22:53:54.876Z,18.75
2023-03-27T22:56:23.225Z,23.42
2023-03-27T22:58:53.292Z,20.75
2023-03-27T23:01:21.655Z,20.85
2023-03-27T23:03:50.501Z,24.15
2023-03-27T23:06:20.159Z,21.08
2023-03-27T23:08:49.606Z,19.33
2023-03-27T23:11:18.941Z,17.27
2023-03-27T23:13:48.102Z,17.17
2023-03-27T23:16:17.728Z,20.55
2023-03-27T23:18:46.853Z,19.27
2023-03-27T23:21:16.813Z,16.95
2023-03-27T23:23:45.777Z,20.50
2023-03-27T23:26:14.397Z,19.50
2023-03-27T23:28:43.760Z,24.67
2023-03-27T23:31:13.587Z,20.13
2023-03-27T23:33:45.112Z,23.85
2023-03-27T23:36:15.058Z,15.25
2023-03-27T23:38:44.068Z,18.65
2023-03-27T23:41:14.079Z,14.80
2023-03-27T23:43:42.788Z,18.20
2023-03-27T23:46:11.530Z,12.95
2023-03-27T23:48:42.112Z,15.65
2023-03-27T23:51:13.066Z,14.05
2023-03-27T23:56:10.737Z,20.08
2023-03-27T23:58:39.285Z,17.00
